Terminal Aerodrome Forecast
Issued by NWS Wilmington, OH

Current Version | Previous Version | Graphics & Text | Print | Product List | Glossary On
Versions: 1 2 3 4 5 6 7 8 9 10 11 12 13 14 15 16 17 18 19 20
787
FTUS41 KILN 221725
TAFDAY
TAF
KDAY 221725Z 2218/2318 21007KT P6SM VCSH BKN080 BKN120
     FM221900 23008KT P6SM BKN120
     FM230100 21004KT P6SM SCT250
      TEMPO 2308/2312 3SM BR
     FM231300 26005KT P6SM SCT250=

USA.gov is the U.S. government's official web portal to all federal, state and local government web resources and services.